Date,TemperatureHighF,TemperatureAvgF,TemperatureLowF,DewpointHighF,DewpointAvgF,DewpointLowF,HumidityHigh,HumidityAvg,HumidityLow,PressureMaxIn,PressureMinIn,WindSpeedMaxMPH,WindSpeedAvgMPH,GustSpeedMaxMPH,PrecipitationSumIn
2013-5-1,59.0,48.8,35.6,46.5,39.1,28.4,93,70,54,30.48,30.35,13,6,13,0.00
2013-5-2,62.6,53.7,32.0,46.4,41.3,32.0,100,65,42,30.46,30.35,12,5,12,0.00
2013-5-3,64.4,53.0,44.6,44.7,39.3,32.2,87,61,42,30.47,30.36,18,11,18,0.00
2013-5-4,59.0,50.5,42.8,43.0,39.3,35.4,87,66,48,30.37,30.26,21,10,21,0.00
2013-5-5,55.4,46.9,32.0,42.9,39.4,32.0,100,76,58,30.31,30.25,16,9,16,0.00
2013-5-6,57.2,48.2,32.0,46.6,41.6,32.0,100,78,66,30.29,30.18,11,5,11,0.00
2013-5-7,62.6,51.3,32.0,53.7,47.3,32.0,100,87,72,30.19,30.13,10,4,10,0.00
2013-5-8,64.4,52.1,32.0,59.0,49.4,32.0,100,91,77,30.16,30.04,21,10,21,0.07
2013-5-9,64.4,46.8,32.0,57.4,45.4,32.0,100,95,77,30.04,29.87,16,4,16,0.04
2013-5-10,69.8,51.0,32.0,55.6,45.5,32.0,100,84,56,29.98,29.91,12,4,12,0.00
2013-5-11,60.8,54.5,32.0,57.3,52.0,32.0,100,91,82,29.94,29.74,10,6,10,0.28
2013-5-12,69.8,62.8,51.8,55.5,41.1,24.5,88,47,25,29.86,29.62,16,13,16,0.00
2013-5-13,57.2,51.1,44.6,33.9,29.0,22.9,57,43,30,30.04,29.86,20,12,20,0.00
2013-5-14,57.2,49.4,41.0,39.2,31.5,26.6,71,51,31,30.08,30.01,17,10,17,0.00
2013-5-15,57.2,47.4,32.0,51.9,42.5,32.0,100,84,63,30.09,29.70,19,5,19,0.00
2013-5-16,71.6,55.3,32.0,53.7,45.5,32.0,100,73,41,29.80,29.69,13,6,13,0.00
2013-5-17,71.6,59.4,50.0,48.2,41.9,35.5,82,55,31,30.23,29.80,19,7,19,0.00
2013-5-18,64.4,55.8,44.6,50.0,46.5,41.0,93,72,52,30.32,30.23,13,5,13,0.00
2013-5-19,62.6,54.2,46.4,53.7,49.2,44.5,94,84,63,30.36,30.22,13,5,13,0.01
2013-5-20,71.6,54.7,32.0,60.9,51.3,32.0,100,89,69,30.22,29.97,14,6,14,0.01
2013-5-21,71.6,52.7,32.0,62.5,48.6,32.0,100,87,69,29.98,29.86,11,5,11,0.00
2013-5-22,62.6,55.8,32.0,57.4,52.6,32.0,100,89,83,29.96,29.88,11,6,11,0.00
2013-5-23,66.2,59.2,32.0,64.4,48.7,0.0,100,80,83,29.94,29.83,19,10,19,0.08
2013-5-24,66.2,46.7,32.0,60.8,43.2,32.0,100,89,63,29.83,29.67,20,9,20,0.01
2013-5-25,53.6,48.3,44.6,53.6,43.5,39.1,100,84,76,29.83,29.75,21,16,21,0.01
2013-5-26,60.8,52.3,44.6,44.7,39.9,37.5,81,64,45,30.16,29.81,20,13,20,0.01
2013-5-27,68.0,54.2,32.0,48.4,43.4,32.0,100,69,40,30.19,30.10,17,7,17,0.00
2013-5-28,64.4,54.9,46.4,57.2,49.6,44.5,100,84,56,30.23,30.17,14,4,14,0.01
2013-5-29,69.8,60.4,55.4,64.4,58.4,55.4,100,94,83,30.18,30.02,9,4,9,0.09
2013-5-30,82.4,68.6,57.2,69.9,62.9,57.2,100,83,66,30.10,30.05,13,4,13,0.00
2013-5-31,78.8,69.6,62.6,69.8,64.4,60.8,100,84,69,30.11,30.00,10,4,10,0.00